Time;durP1;ratioP1;P1;durP2;ratioP2;P2;SDS_P1;SDS_P2;PMS_P1;PMS_P2;Temp;Humidity;BMP_temperature;BMP_pressure;BME280_temperature;BME280_humidity;BME280_pressure;Samples;Min_cycle;Max_cycle;Signal;HPM_P1;HPM_P2
2023/09/23 00:02:43;;;;;;;4.10;2.40;;;16.50;99.90;;;;;;10441653;28;20207;-82
2023/09/23 00:08:06;;;;;;;2.75;2.28;;;16.50;99.90;;;;;;10417665;28;20201;-82
2023/09/23 00:13:27;;;;;;;3.05;2.35;;;16.40;99.90;;;;;;10435511;28;20220;-81
2023/09/23 00:18:50;;;;;;;3.30;2.75;;;16.50;99.90;;;;;;10459043;28;20196;-83
2023/09/23 00:24:13;;;;;;;3.30;2.50;;;16.50;25.30;;;;;;10421775;28;20282;-76
2023/09/23 00:29:35;;;;;;;4.00;2.83;;;16.50;1.00;;;;;;10441044;28;20266;-82
2023/09/23 00:34:56;;;;;;;3.70;2.38;;;16.40;81.50;;;;;;10408089;28;20230;-78
2023/09/23 00:40:24;;;;;;;2.28;2.08;;;16.40;99.90;;;;;;10409111;28;20230;-82
2023/09/23 00:45:48;;;;;;;2.58;2.38;;;16.40;99.90;;;;;;10446300;28;20245;-82
2023/09/23 00:51:10;;;;;;;3.85;2.47;;;16.40;1.00;;;;;;10457710;28;20250;-82
2023/09/23 00:56:36;;;;;;;4.15;2.65;;;16.40;99.90;;;;;;10462773;28;20309;-82
2023/09/23 01:01:57;;;;;;;5.97;4.45;;;16.30;99.90;;;;;;10474225;28;20202;-81
2023/09/23 01:07:19;;;;;;;7.22;5.72;;;16.30;1.00;;;;;;10435291;28;20200;-79
2023/09/23 01:12:41;;;;;;;5.38;4.65;;;16.30;1.00;;;;;;10419030;28;20230;-80
2023/09/23 01:18:04;;;;;;;5.45;4.20;;;16.10;1.00;;;;;;10478363;28;20385;-82
2023/09/23 01:23:26;;;;;;;7.03;4.10;;;16.10;1.00;;;;;;10456500;28;20214;-78
2023/09/23 01:28:49;;;;;;;10.02;4.93;;;16.20;1.00;;;;;;10465245;28;20217;-83
2023/09/23 01:34:10;;;;;;;4.00;3.20;;;16.20;1.00;;;;;;10456399;28;20325;-82
2023/09/23 01:39:32;;;;;;;2.65;2.13;;;16.10;1.00;;;;;;10460542;28;20263;-84
2023/09/23 01:44:54;;;;;;;2.55;2.03;;;16.20;1.00;;;;;;10452897;28;20218;-81
2023/09/23 01:50:18;;;;;;;2.47;2.25;;;16.10;1.00;;;;;;10470443;28;20211;-83
2023/09/23 01:55:40;;;;;;;4.85;2.22;;;16.20;1.00;;;;;;10464045;28;20238;-82
2023/09/23 02:01:04;;;;;;;3.70;2.25;;;16.30;1.00;;;;;;10455029;28;20237;-82
2023/09/23 02:06:34;;;;;;;4.65;2.90;;;16.30;1.00;;;;;;10462487;28;20278;-82
2023/09/23 02:11:56;;;;;;;3.53;2.83;;;16.20;1.00;;;;;;10427352;28;20235;-82
2023/09/23 02:17:19;;;;;;;2.67;2.47;;;16.30;1.00;;;;;;10436113;28;20222;-82
2023/09/23 02:22:41;;;;;;;3.03;2.22;;;16.30;1.00;;;;;;10468589;28;20241;-82
2023/09/23 02:28:03;;;;;;;2.55;2.00;;;16.30;1.00;;;;;;10460503;28;20248;-84
2023/09/23 02:33:25;;;;;;;2.55;2.17;;;16.20;1.00;;;;;;10458790;28;20333;-81
2023/09/23 02:38:48;;;;;;;2.42;2.20;;;16.20;1.00;;;;;;10472807;28;20502;-81
2023/09/23 02:44:09;;;;;;;3.75;2.60;;;16.10;1.00;;;;;;10405261;28;20216;-83
2023/09/23 02:49:32;;;;;;;2.88;2.10;;;16.00;1.00;;;;;;10425503;28;20277;-83
2023/09/23 02:54:54;;;;;;;2.92;2.30;;;16.00;1.00;;;;;;10455610;28;20260;-82
2023/09/23 03:00:17;;;;;;;4.32;2.13;;;16.00;1.00;;;;;;10445359;28;20279;-80
2023/09/23 03:05:44;;;;;;;2.88;2.10;;;16.10;1.00;;;;;;10477757;28;20198;-82
2023/09/23 03:11:09;;;;;;;3.50;2.63;;;16.00;1.00;;;;;;10435934;28;20226;-81
2023/09/23 03:16:31;;;;;;;2.10;1.98;;;16.00;1.00;;;;;;10477894;28;20392;-81
2023/09/23 03:21:56;;;;;;;6.57;3.42;;;16.00;1.00;;;;;;10446230;28;20206;-83
2023/09/23 03:27:18;;;;;;;4.30;3.58;;;15.90;1.00;;;;;;10443885;28;20222;-83
2023/09/23 03:32:39;;;;;;;4.78;3.65;;;15.90;1.00;;;;;;10437409;28;20250;-83
2023/09/23 03:38:01;;;;;;;3.10;2.80;;;15.80;1.00;;;;;;10411886;28;20194;-82
2023/09/23 03:43:24;;;;;;;3.58;2.72;;;15.80;1.00;;;;;;10430949;28;20221;-82
2023/09/23 03:48:46;;;;;;;3.08;2.85;;;15.70;1.00;;;;;;10442213;28;20408;-82
2023/09/23 03:54:08;;;;;;;4.05;2.70;;;;;;;;;;10439774;28;20231;-82
2023/09/23 03:59:30;;;;;;;4.63;3.38;;;15.60;1.00;;;;;;10443385;28;21359;-82
2023/09/23 04:04:53;;;;;;;2.53;2.33;;;15.70;1.00;;;;;;10482858;28;20193;-83
2023/09/23 04:10:27;;;;;;;3.60;2.70;;;15.70;1.00;;;;;;10438408;28;20210;-83
2023/09/23 04:15:49;;;;;;;3.78;2.80;;;15.70;1.00;;;;;;10441715;28;20235;-82
2023/09/23 04:21:12;;;;;;;3.05;2.78;;;15.70;1.00;;;;;;10461658;28;20238;-82
2023/09/23 04:26:33;;;;;;;3.42;3.13;;;15.70;99.90;;;;;;10482862;28;20233;-82
2023/09/23 04:31:56;;;;;;;3.70;2.85;;;15.60;99.90;;;;;;10476793;28;20241;-81
2023/09/23 04:37:18;;;;;;;3.63;3.17;;;15.50;99.90;;;;;;10481424;28;20243;-82
2023/09/23 04:42:41;;;;;;;4.43;3.78;;;15.50;1.00;;;;;;10471262;28;20206;-78
2023/09/23 04:48:04;;;;;;;3.83;3.00;;;15.50;99.90;;;;;;10481801;28;20199;-82
2023/09/23 04:53:27;;;;;;;4.18;3.15;;;15.50;1.00;;;;;;10475087;28;20230;-83
2023/09/23 04:58:49;;;;;;;3.50;3.20;;;15.50;1.00;;;;;;10473625;28;20437;-76
2023/09/23 05:04:11;;;;;;;2.80;2.60;;;15.50;1.00;;;;;;10480199;28;20216;-76
2023/09/23 05:09:34;;;;;;;3.83;3.10;;;15.50;99.90;;;;;;10454332;28;20207;-76
2023/09/23 05:14:57;;;;;;;3.90;2.92;;;15.50;1.00;;;;;;10424297;28;20542;-82
2023/09/23 05:20:25;;;;;;;4.20;2.90;;;15.50;99.90;;;;;;10448051;28;20501;-83
2023/09/23 05:25:47;;;;;;;3.80;3.40;;;15.50;1.00;;;;;;10462296;28;20522;-81
2023/09/23 05:31:09;;;;;;;5.40;4.03;;;15.40;99.90;;;;;;10472924;28;20307;-82
2023/09/23 05:36:31;;;;;;;5.72;3.75;;;15.40;99.90;;;;;;10462151;28;20240;-81
2023/09/23 05:41:53;;;;;;;4.70;3.50;;;15.50;1.00;;;;;;10472640;28;20492;-81
2023/09/23 05:47:16;;;;;;;4.50;3.60;;;15.50;99.90;;;;;;10461846;28;20249;-82
2023/09/23 05:52:38;;;;;;;4.35;3.95;;;15.50;99.90;;;;;;10447593;28;20250;-82
2023/09/23 05:57:59;;;;;;;5.47;4.70;;;15.40;99.90;;;;;;10436200;28;20399;-80
2023/09/23 06:03:21;;;;;;;9.45;4.80;;;15.40;99.90;;;;;;10471147;28;20210;-83
2023/09/23 06:08:42;;;;;;;5.88;5.35;;;15.40;99.90;;;;;;10458147;28;20279;-82
2023/09/23 06:14:03;;;;;;;7.05;5.63;;;15.40;99.90;;;;;;10408730;28;20273;-79
2023/09/23 06:19:25;;;;;;;6.40;5.68;;;15.40;99.90;;;;;;10408299;28;20499;-79
2023/09/23 06:24:51;;;;;;;7.88;5.55;;;15.30;1.00;;;;;;10436665;28;20455;-81
2023/09/23 06:30:15;;;;;;;6.88;5.35;;;15.40;99.90;;;;;;10435679;28;20207;-82
2023/09/23 06:35:37;;;;;;;7.45;6.47;;;15.50;99.90;;;;;;10436660;28;20518;-83
2023/09/23 06:40:59;;;;;;;6.90;5.00;;;15.60;1.00;;;;;;10435457;28;20207;-80
2023/09/23 06:46:20;;;;;;;10.13;6.60;;;15.70;99.90;;;;;;10435056;28;20473;-83
2023/09/23 06:51:41;;;;;;;9.65;8.20;;;15.60;1.00;;;;;;10455519;28;20270;-78
2023/09/23 06:57:03;;;;;;;8.40;7.45;;;15.70;1.00;;;;;;10470775;28;20426;-78
2023/09/23 07:02:24;;;;;;;9.85;8.85;;;15.60;1.00;;;;;;10465029;28;20216;-82
2023/09/23 07:07:45;;;;;;;8.00;7.25;;;15.60;99.90;;;;;;10472686;28;20210;-77
2023/09/23 07:13:08;;;;;;;7.45;6.75;;;15.60;99.90;;;;;;10443003;28;20246;-82
2023/09/23 07:18:31;;;;;;;9.43;5.95;;;15.70;99.90;;;;;;10443475;28;20196;-82
2023/09/23 07:23:54;;;;;;;7.85;5.97;;;16.00;1.00;;;;;;10428970;28;20229;-82
2023/09/23 07:29:16;;;;;;;7.55;6.30;;;16.30;99.90;;;;;;10454572;28;20197;-83
2023/09/23 07:34:37;;;;;;;6.97;5.53;;;16.40;99.90;;;;;;10401268;28;20245;-82
2023/09/23 07:39:58;;;;;;;7.75;6.22;;;16.60;1.00;;;;;;10441040;28;20226;-82
2023/09/23 07:45:20;;;;;;;6.03;5.18;;;16.80;1.00;;;;;;10475021;28;20628;-81
2023/09/23 07:50:41;;;;;;;7.03;6.32;;;16.80;99.90;;;;;;10465118;28;20222;-81
2023/09/23 07:56:03;;;;;;;8.05;5.53;;;16.70;1.00;;;;;;10483778;28;20225;-79
2023/09/23 08:01:24;;;;;;;5.93;5.22;;;16.50;99.90;;;;;;10477288;28;20198;-82
2023/09/23 08:06:46;;;;;;;7.50;5.75;;;16.50;99.90;;;;;;10479741;28;20207;-82
2023/09/23 08:12:07;;;;;;;8.10;5.22;;;16.80;27.00;;;;;;10446217;28;20235;-81
2023/09/23 08:17:28;;;;;;;5.63;5.07;;;17.50;1.00;;;;;;10454283;28;20238;-79
2023/09/23 08:22:50;;;;;;;8.40;6.88;;;17.90;1.00;;;;;;10424521;28;20377;-81
2023/09/23 08:28:13;;;;;;;9.80;7.03;;;18.40;1.00;;;;;;10455819;28;20192;-82
2023/09/23 08:33:35;;;;;;;11.45;7.40;;;18.50;1.00;;;;;;10441024;28;20216;-82
2023/09/23 08:38:56;;;;;;;6.63;5.93;;;18.50;99.90;;;;;;10442728;28;20196;-80
2023/09/23 08:44:21;;;;;;;7.15;5.55;;;18.70;99.90;;;;;;10440171;28;20215;-77
2023/09/23 08:49:49;;;;;;;7.30;6.53;;;19.10;99.90;;;;;;10463971;28;20374;-79
2023/09/23 08:55:11;;;;;;;7.70;5.97;;;18.90;99.90;;;;;;10458764;28;20277;-83
2023/09/23 09:00:33;;;;;;;5.70;5.15;;;18.70;99.90;;;;;;10481651;28;20187;-83
2023/09/23 09:05:55;;;;;;;6.85;5.07;;;18.60;99.90;;;;;;10457272;28;20208;-77
2023/09/23 09:11:22;;;;;;;5.93;5.32;;;18.70;99.90;;;;;;10422408;28;20196;-83
2023/09/23 09:16:43;;;;;;;5.47;4.97;;;18.80;99.90;;;;;;10453625;28;20203;-77
2023/09/23 09:22:06;;;;;;;5.65;4.85;;;19.10;1.00;;;;;;10464535;28;20239;-80
2023/09/23 09:27:28;;;;;;;7.38;4.88;;;19.30;1.00;;;;;;10449846;28;20203;-83
2023/09/23 09:32:56;;;;;;;6.53;5.68;;;19.60;1.00;;;;;;10438784;28;20216;-81
2023/09/23 09:38:20;;;;;;;6.20;5.07;;;19.90;1.00;;;;;;10452026;28;20199;-82
2023/09/23 09:43:45;;;;;;;5.00;4.50;;;20.50;1.00;;;;;;10461908;28;20351;-81
2023/09/23 09:49:08;;;;;;;8.20;5.45;;;;;;;;;;10468453;28;20200;-77
2023/09/23 09:54:31;;;;;;;4.00;3.60;;;21.90;1.00;;;;;;10459042;28;20224;-77
2023/09/23 09:59:58;;;;;;;9.60;3.67;;;;;;;;;;10463572;28;20319;-80
2023/09/23 10:05:21;;;;;;;5.68;4.18;;;24.20;99.90;;;;;;10448717;28;20279;-82
2023/09/23 10:10:47;;;;;;;9.02;4.45;;;24.20;99.90;;;;;;10454050;28;20214;-82
2023/09/23 10:16:17;;;;;;;7.25;4.75;;;24.20;99.90;;;;;;10442184;28;20237;-82
2023/09/23 10:21:39;;;;;;;8.80;4.47;;;23.90;99.90;;;;;;10477608;28;20218;-79
2023/09/23 10:27:06;;;;;;;7.28;5.53;;;23.70;99.90;;;;;;10460457;28;20203;-83
2023/09/23 10:32:28;;;;;;;7.40;5.47;;;23.20;99.90;;;;;;10436809;28;20228;-84
2023/09/23 10:37:50;;;;;;;6.53;5.75;;;22.80;99.90;;;;;;10470404;28;20204;-84
2023/09/23 10:43:11;;;;;;;5.47;4.15;;;22.20;99.90;;;;;;10476094;28;20196;-80
2023/09/23 10:48:33;;;;;;;5.18;4.18;;;21.80;99.90;;;;;;10474824;28;20199;-83
2023/09/23 10:53:55;;;;;;;7.07;4.82;;;21.30;99.90;;;;;;10471886;28;20234;-82
2023/09/23 10:59:17;;;;;;;6.97;4.72;;;21.20;99.90;;;;;;10477326;28;20231;-83
2023/09/23 11:04:39;;;;;;;7.32;3.83;;;20.70;1.00;;;;;;10432525;28;20276;-81
2023/09/23 11:10:06;;;;;;;6.53;4.38;;;20.60;1.00;;;;;;10434223;28;20201;-81
2023/09/23 11:15:30;;;;;;;8.88;5.65;;;20.50;1.00;;;;;;10434496;28;20254;-78
2023/09/23 11:20:52;;;;;;;6.60;4.72;;;20.50;1.00;;;;;;10438109;28;20224;-83
2023/09/23 11:26:14;;;;;;;4.68;3.17;;;20.70;1.00;;;;;;10476732;28;20220;-80
2023/09/23 11:31:35;;;;;;;3.92;3.40;;;20.90;1.00;;;;;;10412036;28;20463;-82
2023/09/23 11:36:57;;;;;;;7.00;4.70;;;20.80;1.00;;;;;;10471781;28;20502;-79
2023/09/23 11:42:20;;;;;;;5.22;3.97;;;20.70;1.00;;;;;;10460537;28;20479;-81
2023/09/23 11:47:41;;;;;;;4.35;3.70;;;20.90;1.00;;;;;;10484228;28;20390;-83
2023/09/23 11:53:03;;;;;;;6.18;3.78;;;21.30;1.00;;;;;;10476939;28;20223;-83
2023/09/23 11:58:25;;;;;;;5.68;3.65;;;21.90;99.90;;;;;;10451874;28;20236;-83
2023/09/23 12:03:47;;;;;;;4.95;3.78;;;22.00;99.90;;;;;;10478014;28;20203;-83
2023/09/23 12:09:09;;;;;;;8.63;3.22;;;21.60;99.90;;;;;;10459726;28;20208;-80
2023/09/23 12:14:31;;;;;;;3.80;3.22;;;21.30;99.90;;;;;;10441782;28;20278;-82
2023/09/23 12:19:53;;;;;;;3.53;3.00;;;21.00;99.90;;;;;;10427157;28;20192;-80
2023/09/23 12:25:15;;;;;;;4.88;3.20;;;21.00;99.90;;;;;;10443919;28;20219;-83
2023/09/23 12:30:37;;;;;;;6.35;3.85;;;21.30;99.90;;;;;;10439727;28;20192;-83
2023/09/23 12:35:58;;;;;;;6.05;2.80;;;21.90;99.90;;;;;;10382686;28;20240;-83
2023/09/23 12:41:20;;;;;;;4.65;3.20;;;22.40;99.90;;;;;;10413333;28;20204;-83
2023/09/23 12:46:42;;;;;;;3.50;2.40;;;22.50;99.90;;;;;;10467316;28;20490;-77
2023/09/23 12:52:05;;;;;;;5.10;3.05;;;22.00;99.90;;;;;;10459758;28;20225;-78
2023/09/23 12:57:26;;;;;;;11.32;9.68;;;22.50;99.90;;;;;;10465700;28;20228;-78
2023/09/23 13:02:48;;;;;;;6.45;3.45;;;23.20;99.90;;;;;;10423907;28;20211;-84
2023/09/23 13:08:11;;;;;;;2.97;1.85;;;23.30;99.90;;;;;;10451820;28;20208;-82
2023/09/23 13:13:33;;;;;;;2.90;1.90;;;22.80;99.90;;;;;;10429730;28;20239;-84
2023/09/23 13:18:54;;;;;;;3.00;1.98;;;22.80;99.90;;;;;;10445982;28;20192;-80
2023/09/23 13:24:16;;;;;;;2.58;2.00;;;22.50;99.90;;;;;;10427048;28;20204;-83
2023/09/23 13:29:37;;;;;;;3.13;2.15;;;21.60;99.90;;;;;;10439032;28;20215;-81
2023/09/23 14:04:20;;;;;;;2.90;1.95;;;;;;;;;;10423189;28;20240;-82
2023/09/23 14:17:09;;;;;;;2.88;1.80;;;;;;;;;;10437470;28;20196;-80
2023/09/23 14:22:31;;;;;;;2.58;1.98;;;;;;;;;;10422251;28;20264;-81
2023/09/23 14:27:53;;;;;;;2.05;1.70;;;;;;;;;;10421901;28;20212;-81
2023/09/23 14:33:15;;;;;;;4.93;1.70;;;;;;;;;;10436958;28;20575;-81
2023/09/23 14:38:37;;;;;;;2.10;1.65;;;19.70;99.90;;;;;;10439301;28;20230;-82
2023/09/23 14:43:59;;;;;;;2.17;1.98;;;19.60;99.90;;;;;;10449925;28;20282;-83
2023/09/23 14:49:21;;;;;;;1.88;1.58;;;19.40;99.90;;;;;;10438103;28;20196;-82
2023/09/23 14:54:42;;;;;;;1.90;1.80;;;19.30;99.90;;;;;;10434686;28;20246;-83
2023/09/23 15:00:05;;;;;;;2.95;1.90;;;19.40;99.90;;;;;;10436426;28;20278;-81
2023/09/23 15:05:27;;;;;;;2.58;2.10;;;19.20;99.90;;;;;;10437951;28;20426;-82
2023/09/23 15:10:49;;;;;;;9.50;5.30;;;19.10;99.90;;;;;;10386677;28;20555;-81
2023/09/23 15:16:10;;;;;;;8.82;6.45;;;19.00;1.00;;;;;;10421783;28;20223;-81
2023/09/23 15:21:31;;;;;;;12.20;8.65;;;18.80;1.00;;;;;;10467435;28;20201;-81
2023/09/23 15:26:53;;;;;;;3.72;2.28;;;18.80;1.00;;;;;;10473168;28;20222;-81
2023/09/23 15:32:15;;;;;;;4.30;2.20;;;18.60;1.00;;;;;;10426117;28;20220;-79
2023/09/23 15:37:36;;;;;;;2.65;1.85;;;18.40;1.00;;;;;;10443298;28;20528;-80
2023/09/23 15:42:59;;;;;;;13.23;4.63;;;18.40;1.00;;;;;;10484639;28;20561;-83
2023/09/23 15:48:21;;;;;;;7.90;2.70;;;18.30;1.00;;;;;;10478390;28;20204;-80
2023/09/23 15:53:43;;;;;;;4.50;2.70;;;18.20;1.00;;;;;;10484359;28;20522;-83
2023/09/23 15:59:05;;;;;;;4.18;2.50;;;18.20;1.00;;;;;;10463560;28;20493;-83
2023/09/23 16:04:26;;;;;;;4.20;2.30;;;18.10;1.00;;;;;;10476863;28;20426;-82
2023/09/23 16:09:48;;;;;;;7.18;3.50;;;18.10;1.00;;;;;;10427267;28;20204;-82
2023/09/23 16:15:09;;;;;;;5.05;2.60;;;18.20;1.00;;;;;;10432112;28;20243;-81
2023/09/23 16:20:31;;;;;;;3.65;2.40;;;18.10;1.00;;;;;;10414515;28;20208;-79
2023/09/23 16:25:52;;;;;;;2.35;1.40;;;18.10;1.00;;;;;;10454865;28;20215;-81
2023/09/23 16:31:13;;;;;;;4.55;1.65;;;18.00;1.00;;;;;;10411364;28;20316;-84
2023/09/23 16:36:35;;;;;;;2.90;1.58;;;;;;;;;;10399301;28;20217;-83
2023/09/23 16:41:56;;;;;;;3.05;1.45;;;17.80;1.00;;;;;;10432140;28;20196;-81
2023/09/23 16:47:18;;;;;;;1.63;1.40;;;;;;;;;;10440514;28;20215;-83
2023/09/23 16:52:40;;;;;;;4.35;2.47;;;;;;;;;;10439495;28;20585;-80
2023/09/23 17:05:08;;;;;;;2.30;1.38;;;17.50;99.90;;;;;;10437323;28;20562;-81
2023/09/23 17:10:30;;;;;;;1.55;1.13;;;17.30;1.00;;;;;;10411269;28;20271;-82
2023/09/23 17:15:54;;;;;;;1.73;1.25;;;;;;;;;;10439380;28;20230;-83
2023/09/23 17:21:16;;;;;;;2.90;1.50;;;;;;;;;;10430643;28;20222;-82
2023/09/23 17:26:37;;;;;;;2.08;1.25;;;17.20;28.20;;;;;;10424558;28;20192;-80
2023/09/23 17:32:00;;;;;;;1.73;1.38;;;17.10;1.00;;;;;;10439837;28;20205;-83
2023/09/23 17:37:21;;;;;;;1.65;1.48;;;16.90;1.00;;;;;;10479382;28;20225;-78
2023/09/23 17:42:43;;;;;;;3.15;1.38;;;16.70;1.00;;;;;;10435782;28;20204;-82
2023/09/23 17:48:05;;;;;;;3.50;2.17;;;16.70;1.00;;;;;;10438053;28;20196;-80
2023/09/23 17:53:30;;;;;;;4.53;2.97;;;16.70;1.00;;;;;;10472275;28;20302;-82
2023/09/23 17:58:51;;;;;;;4.05;2.70;;;16.70;1.00;;;;;;10476558;28;20207;-83
2023/09/23 18:04:13;;;;;;;2.85;1.98;;;16.90;99.90;;;;;;10455305;28;20249;-82
2023/09/23 18:09:36;;;;;;;2.63;1.70;;;16.70;1.00;;;;;;10435213;28;20251;-82
2023/09/23 18:14:57;;;;;;;2.10;1.60;;;16.70;1.00;;;;;;10457205;28;20228;-83
2023/09/23 18:20:23;;;;;;;4.22;2.25;;;16.60;1.00;;;;;;10444121;28;20276;-82
2023/09/23 18:25:47;;;;;;;2.15;1.80;;;16.60;1.00;;;;;;10477621;28;20260;-81
2023/09/23 18:31:09;;;;;;;1.90;1.35;;;16.60;1.00;;;;;;10432002;28;20558;-80
2023/09/23 18:36:30;;;;;;;5.00;2.20;;;16.50;1.00;;;;;;10459936;28;20238;-82
2023/09/23 18:41:52;;;;;;;3.88;2.42;;;16.40;14.50;;;;;;10453818;28;20652;-82
2023/09/23 18:47:14;;;;;;;3.70;2.75;;;16.50;99.90;;;;;;10476966;28;20190;-81
2023/09/23 18:52:36;;;;;;;3.72;2.50;;;16.30;99.90;;;;;;10472036;28;20211;-82
2023/09/23 18:57:57;;;;;;;4.22;2.38;;;16.30;1.00;;;;;;10446824;28;20204;-81
2023/09/23 19:03:19;;;;;;;3.97;2.40;;;16.10;99.90;;;;;;10455808;28;20206;-82
2023/09/23 19:08:42;;;;;;;2.90;2.60;;;;;;;;;;10428858;28;20279;-83
2023/09/23 19:14:04;;;;;;;2.60;2.28;;;16.10;99.90;;;;;;10403898;28;20232;-82
2023/09/23 19:19:26;;;;;;;3.60;2.70;;;;;;;;;;10435687;28;20204;-83
2023/09/23 19:24:47;;;;;;;4.45;3.03;;;;;;;;;;10432705;28;20490;-82
2023/09/23 19:30:14;;;;;;;4.28;3.30;;;;;;;;;;10417159;28;20242;-82
2023/09/23 19:35:38;;;;;;;4.40;2.80;;;;;;;;;;10434689;28;20552;-82
2023/09/23 19:41:01;;;;;;;7.40;3.30;;;;;;;;;;10434225;28;20263;-81
2023/09/23 19:46:23;;;;;;;7.18;4.32;;;15.50;1.00;;;;;;10434219;28;20199;-83
2023/09/23 19:51:44;;;;;;;6.15;3.35;;;15.50;99.90;;;;;;10430308;28;20218;-81
2023/09/23 19:57:07;;;;;;;3.00;2.35;;;;;;;;;;10439438;28;20395;-82
2023/09/23 20:02:28;;;;;;;6.30;4.22;;;;;;;;;;10442596;28;20212;-82
2023/09/23 20:07:50;;;;;;;8.80;4.97;;;;;;;;;;10445765;28;20239;-81
2023/09/23 20:13:11;;;;;;;12.00;7.30;;;;;;;;;;10429650;28;20227;-82
2023/09/23 20:18:33;;;;;;;25.65;9.77;;;;;;;;;;10428494;28;20287;-81
2023/09/23 20:23:55;;;;;;;24.33;9.57;;;;;;;;;;10441701;28;20385;-81
2023/09/23 20:29:17;;;;;;;25.45;9.73;;;;;;;;;;10444397;28;20232;-79
2023/09/23 20:34:39;;;;;;;20.73;9.48;;;;;;;;;;10477745;28;20299;-83
2023/09/23 20:40:02;;;;;;;19.55;8.60;;;;;;;;;;10465313;28;20202;-83
2023/09/23 20:45:24;;;;;;;18.88;8.93;;;;;;;;;;10424418;28;20215;-82
2023/09/23 20:50:47;;;;;;;18.13;8.02;;;;;;;;;;10430890;28;20208;-83
2023/09/23 20:56:10;;;;;;;19.08;9.35;;;14.60;1.00;;;;;;10446172;28;20234;-81
2023/09/23 21:01:33;;;;;;;19.38;8.95;;;14.60;1.00;;;;;;10476279;28;20256;-81
2023/09/23 21:06:54;;;;;;;15.63;7.63;;;14.50;1.00;;;;;;10397329;28;20297;-81
2023/09/23 21:12:16;;;;;;;11.00;6.18;;;14.50;1.00;;;;;;10379717;28;20498;-82
2023/09/23 21:17:38;;;;;;;9.75;5.18;;;14.50;95.10;;;;;;10398585;28;20206;-82
2023/09/23 21:22:59;;;;;;;8.10;4.53;;;14.60;1.00;;;;;;10418682;28;20234;-83
2023/09/23 21:28:22;;;;;;;8.02;4.28;;;14.60;1.00;;;;;;10429753;28;20210;-83
2023/09/23 21:33:44;;;;;;;6.88;3.58;;;14.60;1.00;;;;;;10398049;28;20240;-80
2023/09/23 21:39:31;;;;;;;5.60;3.45;;;14.50;1.00;;;;;;10411909;28;20266;-83
2023/09/23 21:44:53;;;;;;;5.85;3.55;;;14.50;1.00;;;;;;10397925;28;20195;-81
2023/09/23 21:50:14;;;;;;;4.95;3.60;;;14.40;1.00;;;;;;10397394;28;20233;-81
2023/09/23 21:55:38;;;;;;;7.15;3.65;;;14.30;99.90;;;;;;10417802;28;20237;-79
2023/09/23 22:01:00;;;;;;;6.93;3.53;;;14.10;1.00;;;;;;10438017;28;20489;-81
2023/09/23 22:06:22;;;;;;;4.97;2.90;;;14.20;99.90;;;;;;10461296;28;20284;-80
2023/09/23 22:11:44;;;;;;;3.45;2.75;;;14.20;99.90;;;;;;10410892;28;20254;-82
2023/09/23 22:17:05;;;;;;;4.38;2.35;;;14.30;99.90;;;;;;10436421;28;20240;-81
2023/09/23 22:22:29;;;;;;;3.28;2.45;;;14.30;99.90;;;;;;10435623;28;20228;-81
2023/09/23 22:27:54;;;;;;;2.60;2.00;;;14.30;99.90;;;;;;10437143;28;20230;-83
2023/09/23 22:33:15;;;;;;;4.32;2.97;;;14.20;99.90;;;;;;10405788;28;20234;-81
2023/09/23 22:38:37;;;;;;;4.82;2.35;;;14.10;99.90;;;;;;10435822;28;20234;-79
2023/09/23 22:43:59;;;;;;;2.38;2.17;;;14.20;99.90;;;;;;10436654;28;20486;-83
2023/09/23 22:49:21;;;;;;;3.38;2.25;;;14.00;1.00;;;;;;10418713;28;20226;-81
2023/09/23 22:54:43;;;;;;;2.47;2.10;;;14.00;1.00;;;;;;10441027;28;20223;-82
2023/09/23 23:00:06;;;;;;;2.63;2.42;;;14.00;1.00;;;;;;10436371;28;20190;-81
2023/09/23 23:05:27;;;;;;;4.40;2.75;;;13.90;1.00;;;;;;10462931;28;20280;-83
2023/09/23 23:10:49;;;;;;;4.55;2.83;;;13.80;1.00;;;;;;10452919;28;20198;-82
2023/09/23 23:16:20;;;;;;;3.78;2.40;;;13.80;1.00;;;;;;10435926;28;20591;-80
2023/09/23 23:21:41;;;;;;;3.30;2.47;;;13.70;1.00;;;;;;10448909;28;20195;-81
2023/09/23 23:27:04;;;;;;;4.82;2.40;;;13.70;99.90;;;;;;10436035;28;20204;-79
2023/09/23 23:32:26;;;;;;;4.47;2.05;;;13.70;1.00;;;;;;10449233;28;20207;-81
2023/09/23 23:37:48;;;;;;;2.53;1.95;;;13.70;1.00;;;;;;10484907;28;20236;-79
2023/09/23 23:43:10;;;;;;;3.35;2.45;;;13.80;99.90;;;;;;10458091;28;20202;-81
2023/09/23 23:48:31;;;;;;;2.38;2.08;;;13.90;92.00;;;;;;10456315;28;20213;-80
2023/09/23 23:53:53;;;;;;;2.78;1.95;;;13.90;1.00;;;;;;10466749;28;20232;-82
2023/09/23 23:59:15;;;;;;;3.70;1.85;;;13.90;1.00;;;;;;10446390;28;20449;-82
